Time;durP1;ratioP1;P1;durP2;ratioP2;P2;SDS_P1;SDS_P2;PMS_P1;PMS_P2;Temp;Humidity;BMP_temperature;BMP_pressure;BME280_temperature;BME280_humidity;BME280_pressure;Samples;Min_cycle;Max_cycle;Signal;HPM_P1;HPM_P2
2023/11/30 00:00:36;;;;;;;84.00;6.10;;;25.10;56.80;;;;;;4992914;28;20600;-69
2023/11/30 00:03:04;;;;;;;1.43;0.80;;;25.00;57.70;;;;;;4992342;28;20272;-74
2023/11/30 00:05:31;;;;;;;86.20;6.50;;;25.10;56.90;;;;;;4990539;28;20527;-70
2023/11/30 00:07:58;;;;;;;1.43;0.70;;;25.00;57.70;;;;;;4985417;28;20740;-70
2023/11/30 00:10:26;;;;;;;82.00;6.57;;;24.90;58.00;;;;;;4991792;28;20233;-70
2023/11/30 00:12:53;;;;;;;30.07;2.93;;;25.00;58.30;;;;;;4986410;28;20610;-71
2023/11/30 00:15:20;;;;;;;2.90;1.07;;;25.20;58.60;;;;;;4992375;28;20194;-71
2023/11/30 00:17:47;;;;;;;2.30;0.70;;;25.50;57.70;;;;;;4988907;28;20664;-72
2023/11/30 00:20:15;;;;;;;2.53;0.77;;;25.70;56.90;;;;;;4993638;28;20227;-71
2023/11/30 00:22:42;;;;;;;3.73;0.80;;;25.80;55.80;;;;;;4989794;28;20231;-72
2023/11/30 00:25:10;;;;;;;4.70;0.80;;;26.10;56.40;;;;;;4991778;28;20190;-70
2023/11/30 00:27:37;;;;;;;1.57;0.87;;;26.60;54.50;;;;;;4989280;28;20242;-71
2023/11/30 00:30:06;;;;;;;1.00;0.87;;;26.30;54.90;;;;;;4993021;28;20218;-71
2023/11/30 00:32:35;;;;;;;0.93;0.70;;;25.90;55.60;;;;;;4991690;28;20190;-72
2023/11/30 00:35:02;;;;;;;5.80;1.13;;;25.60;56.00;;;;;;4992301;28;20182;-69
2023/11/30 00:37:30;;;;;;;1.47;1.30;;;25.30;58.80;;;;;;4990441;28;20685;-67
2023/11/30 00:39:57;;;;;;;1.00;0.90;;;25.10;59.00;;;;;;4990255;28;20264;-71
2023/11/30 00:42:25;;;;;;;1.40;1.03;;;25.40;59.50;;;;;;4991425;28;20182;-70
2023/11/30 00:44:52;;;;;;;1.30;1.00;;;25.90;57.50;;;;;;4989222;28;20197;-72
2023/11/30 00:47:20;;;;;;;2.97;1.30;;;26.40;57.20;;;;;;4991668;28;20193;-70
2023/11/30 00:49:47;;;;;;;1.53;1.10;;;26.70;55.00;;;;;;4990507;28;20300;-68
2023/11/30 00:52:14;;;;;;;2.70;1.10;;;26.90;55.30;;;;;;4990693;28;20205;-70
2023/11/30 00:54:41;;;;;;;3.10;1.17;;;27.20;54.20;;;;;;4984656;28;20534;-69
2023/11/30 00:57:09;;;;;;;1.30;1.20;;;27.60;54.50;;;;;;4991771;28;20193;-66
2023/11/30 00:59:36;;;;;;;3.07;1.10;;;27.40;54.00;;;;;;4986522;28;20309;-70
2023/11/30 01:02:03;;;;;;;1.57;1.10;;;27.60;52.20;;;;;;4991031;28;20174;-67
2023/11/30 01:04:31;;;;;;;7.73;1.27;;;27.70;52.30;;;;;;4987263;28;20252;-66
2023/11/30 01:06:58;;;;;;;98.53;8.63;;;27.70;53.00;;;;;;4989048;28;20190;-66
2023/11/30 01:09:25;;;;;;;50.77;4.80;;;27.80;51.80;;;;;;4988085;28;20606;-72
2023/11/30 01:11:52;;;;;;;119.07;11.10;;;27.90;51.20;;;;;;4990925;28;20348;-70
2023/11/30 01:14:20;;;;;;;36.57;3.63;;;28.30;51.60;;;;;;4987371;28;20235;-72
2023/11/30 01:16:47;;;;;;;28.47;2.57;;;28.20;49.70;;;;;;4991358;28;20293;-70
2023/11/30 01:19:14;;;;;;;18.83;2.40;;;28.30;49.40;;;;;;4990209;28;20638;-70
2023/11/30 01:21:42;;;;;;;59.33;4.60;;;27.90;48.40;;;;;;4987436;28;20617;-72
2023/11/30 01:24:09;;;;;;;127.37;9.50;;;27.80;47.90;;;;;;4991299;28;20194;-69
2023/11/30 01:26:36;;;;;;;136.73;9.97;;;27.60;47.10;;;;;;4987239;28;20202;-71
2023/11/30 01:29:04;;;;;;;80.90;6.50;;;28.10;46.40;;;;;;4986358;28;20213;-70
2023/11/30 01:31:32;;;;;;;38.93;2.97;;;28.00;47.20;;;;;;4990909;28;20260;-71
2023/11/30 01:33:59;;;;;;;28.27;2.40;;;27.90;47.30;;;;;;4990854;28;20297;-73
2023/11/30 01:36:26;;;;;;;55.13;4.27;;;27.80;47.90;;;;;;4991543;28;20186;-69
2023/11/30 01:38:54;;;;;;;87.13;7.10;;;27.60;49.40;;;;;;4989695;28;20190;-70
2023/11/30 01:41:21;;;;;;;23.43;2.70;;;27.50;49.20;;;;;;4989230;28;20262;-68
2023/11/30 01:43:48;;;;;;;101.97;8.20;;;27.40;49.30;;;;;;4989538;28;20217;-69
2023/11/30 01:46:16;;;;;;;64.27;3.83;;;27.30;49.20;;;;;;4987162;28;20186;-72
2023/11/30 01:48:43;;;;;;;1.77;0.80;;;27.10;49.80;;;;;;4990740;28;20213;-68
2023/11/30 01:51:11;;;;;;;1.27;0.50;;;27.10;49.70;;;;;;4987093;28;20198;-72
2023/11/30 01:53:40;;;;;;;0.47;0.40;;;27.00;50.60;;;;;;4992231;28;20252;-71
2023/11/30 01:56:09;;;;;;;4.10;0.40;;;26.80;51.40;;;;;;4990732;28;20546;-69
2023/11/30 01:58:36;;;;;;;1.80;0.43;;;27.10;50.70;;;;;;4992118;28;20185;-72
2023/11/30 02:01:04;;;;;;;1.53;0.60;;;27.10;50.60;;;;;;4986942;28;20264;-71
2023/11/30 02:03:32;;;;;;;1.83;0.43;;;26.90;51.70;;;;;;4990456;28;20252;-70
2023/11/30 02:05:59;;;;;;;4.03;1.00;;;26.90;51.50;;;;;;4987984;28;20201;-73
2023/11/30 02:08:27;;;;;;;1.23;0.43;;;27.60;50.50;;;;;;4994478;28;20182;-71
2023/11/30 02:10:54;;;;;;;2.03;0.53;;;27.40;50.10;;;;;;4990931;28;20201;-71
2023/11/30 02:13:24;;;;;;;0.60;0.50;;;27.30;50.20;;;;;;4988177;28;20714;-70
2023/11/30 02:15:51;;;;;;;0.40;0.40;;;27.50;49.30;;;;;;4987094;28;20545;-70
2023/11/30 02:18:19;;;;;;;1.40;0.50;;;27.20;50.70;;;;;;4989997;28;20240;-74
2023/11/30 02:20:46;;;;;;;3.87;0.47;;;26.80;51.40;;;;;;4989081;28;20324;-70
2023/11/30 02:23:13;;;;;;;1.33;0.57;;;26.60;53.10;;;;;;4993649;28;20213;-69
2023/11/30 02:25:41;;;;;;;2.50;0.90;;;26.40;52.80;;;;;;4993398;28;20281;-69
2023/11/30 02:28:08;;;;;;;7.70;0.97;;;26.40;53.20;;;;;;4989819;28;20225;-68
2023/11/30 02:30:37;;;;;;;11.40;2.17;;;26.30;53.80;;;;;;4992835;28;20285;-69
2023/11/30 02:33:04;;;;;;;22.90;2.33;;;26.20;54.20;;;;;;4993721;28;20293;-69
2023/11/30 02:35:33;;;;;;;6.03;0.93;;;26.10;54.30;;;;;;4993194;28;20268;-69
2023/11/30 02:38:00;;;;;;;8.27;1.30;;;25.90;55.60;;;;;;4994074;28;20244;-70
2023/11/30 02:40:27;;;;;;;5.47;0.90;;;25.90;58.00;;;;;;4993402;28;20663;-67
2023/11/30 02:42:54;;;;;;;1.03;0.70;;;26.70;58.20;;;;;;4990917;28;20583;-66
2023/11/30 02:45:22;;;;;;;2.83;1.00;;;26.80;57.40;;;;;;4993160;28;20194;-67
2023/11/30 02:47:49;;;;;;;1.00;0.70;;;26.70;57.10;;;;;;4977593;28;20532;-66
2023/11/30 02:50:16;;;;;;;0.87;0.63;;;26.60;55.40;;;;;;4992812;28;20579;-66
2023/11/30 02:52:44;;;;;;;1.63;1.00;;;26.90;55.80;;;;;;4988978;28;20198;-68
2023/11/30 02:55:11;;;;;;;1.97;0.93;;;27.40;54.30;;;;;;4992869;28;20208;-70
2023/11/30 02:57:38;;;;;;;2.20;1.00;;;27.90;54.00;;;;;;4990172;28;20641;-70
2023/11/30 03:00:06;;;;;;;7.67;1.20;;;28.50;52.60;;;;;;4994608;28;20186;-71
2023/11/30 03:02:34;;;;;;;2.63;1.00;;;28.50;53.70;;;;;;4993238;28;20606;-67
2023/11/30 03:05:01;;;;;;;3.70;1.03;;;28.70;53.00;;;;;;4991583;28;20222;-69
2023/11/30 03:07:28;;;;;;;1.90;0.83;;;28.50;52.10;;;;;;4993702;28;20316;-71
2023/11/30 03:09:56;;;;;;;2.07;0.73;;;28.10;52.60;;;;;;4993082;28;20682;-69
2023/11/30 03:12:23;;;;;;;1.20;0.60;;;27.80;53.40;;;;;;4990554;28;20182;-67
2023/11/30 03:14:50;;;;;;;2.67;0.93;;;27.70;54.10;;;;;;4993541;28;20193;-70
2023/11/30 03:17:17;;;;;;;1.20;0.70;;;27.60;54.00;;;;;;4991323;28;20188;-70
2023/11/30 03:19:45;;;;;;;3.03;0.90;;;27.70;52.90;;;;;;4990093;28;20189;-69
2023/11/30 03:22:12;;;;;;;2.17;0.83;;;27.80;52.00;;;;;;4989002;28;20296;-69
2023/11/30 03:24:40;;;;;;;3.70;1.00;;;27.80;52.40;;;;;;4993338;28;20217;-69
2023/11/30 03:27:11;;;;;;;1.17;0.70;;;27.50;52.40;;;;;;4990131;28;20641;-71
2023/11/30 03:29:40;;;;;;;3.23;1.10;;;27.30;53.50;;;;;;4989092;28;20313;-68
2023/11/30 03:32:07;;;;;;;2.40;0.90;;;27.10;54.40;;;;;;4990442;28;20187;-67
2023/11/30 03:34:35;;;;;;;3.23;0.80;;;27.10;53.90;;;;;;4970135;28;20579;-67
2023/11/30 03:37:02;;;;;;;1.13;0.50;;;27.00;53.80;;;;;;4989476;28;20264;-67
2023/11/30 03:39:29;;;;;;;1.80;0.70;;;27.10;52.20;;;;;;4993748;28;20198;-67
2023/11/30 03:41:56;;;;;;;0.57;0.47;;;27.60;50.60;;;;;;4993579;28;20198;-66
2023/11/30 03:44:24;;;;;;;2.37;0.30;;;28.00;48.20;;;;;;4994772;28;20277;-68
2023/11/30 03:46:51;;;;;;;0.70;0.50;;;28.60;45.10;;;;;;4994500;28;20222;-68
2023/11/30 03:49:18;;;;;;;1.70;0.47;;;29.30;44.20;;;;;;4992111;28;20202;-67
2023/11/30 03:51:46;;;;;;;0.50;0.30;;;29.90;43.50;;;;;;4989544;28;20510;-69
2023/11/30 03:54:13;;;;;;;6.87;0.77;;;30.60;40.60;;;;;;4994171;28;20308;-69
2023/11/30 03:56:40;;;;;;;0.40;0.40;;;30.80;39.50;;;;;;4993212;28;20645;-70
2023/11/30 03:59:09;;;;;;;4.00;0.30;;;31.00;40.40;;;;;;4991558;28;20182;-70
2023/11/30 04:01:37;;;;;;;3.40;0.40;;;30.90;40.10;;;;;;4994120;28;20190;-68
2023/11/30 04:04:04;;;;;;;0.32;0.32;;;30.50;40.30;;;;;;4993011;28;20194;-67
2023/11/30 04:06:32;;;;;;;0.32;0.30;;;30.10;41.30;;;;;;4993713;28;20186;-68
2023/11/30 04:08:59;;;;;;;1.27;0.40;;;29.40;42.90;;;;;;4993435;28;20221;-71
2023/11/30 04:11:27;;;;;;;0.63;0.43;;;29.00;43.70;;;;;;4994025;28;20641;-66
2023/11/30 04:14:03;;;;;;;4.63;0.60;;;28.30;44.10;;;;;;4976898;28;20185;-67
2023/11/30 04:16:30;;;;;;;0.40;0.40;;;28.00;45.00;;;;;;4992950;28;20182;-72
2023/11/30 04:18:58;;;;;;;0.40;0.37;;;27.70;46.70;;;;;;4990702;28;20231;-68
2023/11/30 04:21:25;;;;;;;0.87;0.30;;;27.50;47.30;;;;;;4994161;28;20738;-68
2023/11/30 04:23:53;;;;;;;0.57;0.40;;;27.50;47.10;;;;;;4984821;28;20182;-66
2023/11/30 04:26:20;;;;;;;0.90;0.70;;;27.60;47.90;;;;;;4992166;28;20212;-67
2023/11/30 04:28:47;;;;;;;0.87;0.40;;;27.60;47.20;;;;;;4992368;28;20226;-72
2023/11/30 04:31:15;;;;;;;0.90;0.33;;;27.60;45.80;;;;;;4993434;28;20276;-70
2023/11/30 04:33:42;;;;;;;0.80;0.40;;;27.70;46.20;;;;;;4993341;28;20189;-70
2023/11/30 04:36:10;;;;;;;0.60;0.30;;;27.80;45.50;;;;;;4991456;28;20269;-67
2023/11/30 04:38:37;;;;;;;0.77;0.30;;;27.80;44.70;;;;;;4993173;28;20189;-70
2023/11/30 04:41:04;;;;;;;2.30;0.50;;;27.80;45.20;;;;;;4992609;28;20220;-66
2023/11/30 04:43:32;;;;;;;1.77;0.30;;;27.90;44.60;;;;;;4992611;28;20185;-67
2023/11/30 04:45:59;;;;;;;0.50;0.30;;;28.20;44.10;;;;;;4992353;28;20190;-65
2023/11/30 04:48:26;;;;;;;1.50;0.40;;;28.00;45.30;;;;;;4974250;28;20178;-65
2023/11/30 04:50:54;;;;;;;7.33;0.60;;;28.50;44.40;;;;;;4985180;28;20186;-71
2023/11/30 04:53:21;;;;;;;0.20;0.20;;;29.20;42.10;;;;;;4989502;28;20209;-69
2023/11/30 04:55:48;;;;;;;4.40;0.30;;;29.60;41.50;;;;;;4993445;28;20174;-69
2023/11/30 04:58:16;;;;;;;5.10;0.40;;;29.80;40.90;;;;;;4991995;28;20229;-69
2023/11/30 05:00:43;;;;;;;2.50;0.40;;;29.80;40.70;;;;;;4988480;28;20273;-69
2023/11/30 05:03:10;;;;;;;1.20;0.20;;;30.30;40.90;;;;;;4993105;28;20625;-70
2023/11/30 05:05:38;;;;;;;0.75;0.30;;;30.40;39.50;;;;;;4992036;28;20659;-69
2023/11/30 05:08:06;;;;;;;1.27;0.50;;;29.90;40.10;;;;;;4985381;28;20178;-73
2023/11/30 05:10:33;;;;;;;3.05;0.50;;;30.40;41.30;;;;;;4992203;28;20262;-70
2023/11/30 05:13:00;;;;;;;0.45;0.40;;;30.80;38.80;;;;;;4992842;28;20679;-70
2023/11/30 05:15:28;;;;;;;0.30;0.30;;;30.90;38.70;;;;;;4993336;28;20533;-69
2023/11/30 05:17:55;;;;;;;1.27;0.30;;;31.00;38.10;;;;;;4993055;28;20324;-68
2023/11/30 05:20:22;;;;;;;1.42;0.20;;;31.60;38.20;;;;;;4989983;28;20633;-67
2023/11/30 05:22:50;;;;;;;1.02;0.50;;;31.10;38.00;;;;;;4992403;28;20656;-71
2023/11/30 05:25:17;;;;;;;0.50;0.30;;;30.10;39.00;;;;;;4991598;28;20181;-71
2023/11/30 05:27:44;;;;;;;0.65;0.30;;;29.20;40.70;;;;;;4993184;28;20700;-70
2023/11/30 05:30:12;;;;;;;0.53;0.23;;;29.70;40.30;;;;;;4982789;28;20698;-69
2023/11/30 05:32:40;;;;;;;1.23;0.40;;;29.30;41.50;;;;;;4992255;28;20648;-75
2023/11/30 05:35:08;;;;;;;1.90;0.30;;;28.90;41.70;;;;;;4993866;28;20229;-73
2023/11/30 05:37:35;;;;;;;1.67;0.23;;;28.50;43.30;;;;;;4993871;28;20189;-71
2023/11/30 05:40:04;;;;;;;0.57;0.30;;;28.30;43.00;;;;;;4991236;28;20181;-75
2023/11/30 05:42:31;;;;;;;1.30;0.47;;;28.10;43.10;;;;;;4992447;28;20745;-71
2023/11/30 05:44:59;;;;;;;3.30;0.40;;;27.90;43.50;;;;;;4993381;28;20178;-72
2023/11/30 05:47:26;;;;;;;0.40;0.30;;;27.70;44.50;;;;;;4989625;28;20194;-72
2023/11/30 05:49:54;;;;;;;1.20;0.33;;;27.60;44.20;;;;;;4996765;28;20236;-71
2023/11/30 05:52:22;;;;;;;1.13;0.33;;;27.60;44.30;;;;;;4993589;28;20188;-73
2023/11/30 05:54:49;;;;;;;1.63;0.40;;;27.40;44.70;;;;;;4991551;28;20192;-71
2023/11/30 05:57:17;;;;;;;0.97;0.40;;;27.40;45.00;;;;;;4992325;28;20170;-72
2023/11/30 05:59:44;;;;;;;2.13;0.40;;;27.30;45.50;;;;;;4992397;28;20213;-72
2023/11/30 06:02:12;;;;;;;1.60;0.30;;;27.20;45.50;;;;;;4992928;28;20613;-72
2023/11/30 06:04:50;;;;;;;1.33;0.20;;;27.20;45.40;;;;;;4992395;28;20305;-70
2023/11/30 06:07:17;;;;;;;0.93;0.70;;;27.00;45.70;;;;;;4991491;28;20190;-70
2023/11/30 06:09:45;;;;;;;0.50;0.37;;;27.00;46.20;;;;;;4992581;28;20304;-72
2023/11/30 06:12:12;;;;;;;0.97;0.30;;;26.90;46.30;;;;;;4991982;28;20182;-73
2023/11/30 06:14:40;;;;;;;0.40;0.30;;;26.80;46.60;;;;;;4992681;28;20190;-70
2023/11/30 06:17:07;;;;;;;1.03;0.40;;;26.80;47.10;;;;;;4990947;28;20178;-69
2023/11/30 06:19:34;;;;;;;1.90;0.30;;;26.70;47.10;;;;;;4992214;28;20193;-72
2023/11/30 06:22:02;;;;;;;1.30;0.40;;;26.70;47.30;;;;;;5001449;28;20236;-74
2023/11/30 06:24:29;;;;;;;0.57;0.40;;;26.60;47.70;;;;;;4992022;28;20189;-71
2023/11/30 06:26:57;;;;;;;1.17;0.33;;;26.50;48.10;;;;;;4999661;28;20747;-74
2023/11/30 06:29:24;;;;;;;4.03;0.40;;;26.50;48.70;;;;;;4988915;28;20214;-72
2023/11/30 06:31:52;;;;;;;1.70;0.53;;;26.60;48.80;;;;;;4992245;28;20711;-70
2023/11/30 06:34:20;;;;;;;0.80;0.73;;;26.50;48.90;;;;;;4992140;28;20186;-69
2023/11/30 06:36:47;;;;;;;2.77;0.90;;;26.40;52.00;;;;;;4991904;28;20637;-73
2023/11/30 06:39:18;;;;;;;2.57;1.00;;;26.00;56.10;;;;;;4991981;28;20178;-68
2023/11/30 06:41:49;;;;;;;2.47;0.90;;;25.60;58.60;;;;;;4984843;28;20178;-68
2023/11/30 06:44:16;;;;;;;5.50;1.10;;;25.40;59.70;;;;;;4992022;28;20653;-72
2023/11/30 06:46:44;;;;;;;2.10;1.03;;;25.20;61.30;;;;;;4992435;28;20186;-70
2023/11/30 06:49:13;;;;;;;7.53;1.47;;;24.90;63.00;;;;;;4991111;28;20252;-71
2023/11/30 06:51:40;;;;;;;6.97;1.50;;;24.90;64.10;;;;;;4987146;28;20658;-66
2023/11/30 06:54:07;;;;;;;3.93;1.30;;;24.80;66.00;;;;;;4991712;28;20196;-67
2023/11/30 06:56:35;;;;;;;8.30;1.40;;;24.70;67.30;;;;;;4992184;28;20181;-70
2023/11/30 06:59:03;;;;;;;4.60;1.97;;;24.60;67.90;;;;;;4974161;28;20293;-69
2023/11/30 07:01:30;;;;;;;9.47;1.63;;;24.50;68.20;;;;;;4992696;28;20201;-70
2023/11/30 07:03:58;;;;;;;5.00;1.70;;;24.50;68.30;;;;;;4991768;28;20182;-69
2023/11/30 07:06:25;;;;;;;3.63;1.47;;;24.30;68.20;;;;;;4992521;28;20683;-70
2023/11/30 07:08:52;;;;;;;10.27;1.87;;;24.60;67.40;;;;;;4995527;28;20666;-67
2023/11/30 07:11:20;;;;;;;4.17;1.30;;;24.40;67.20;;;;;;4995338;28;20189;-70
2023/11/30 07:13:47;;;;;;;4.63;1.30;;;24.20;67.50;;;;;;4993908;28;20308;-70
2023/11/30 07:16:14;;;;;;;4.60;1.17;;;24.10;68.60;;;;;;4995223;28;20283;-70
2023/11/30 07:18:42;;;;;;;3.23;1.57;;;24.00;69.30;;;;;;4994393;28;20256;-71
2023/11/30 07:21:18;;;;;;;5.33;1.73;;;24.00;69.40;;;;;;4994974;28;20182;-71
2023/11/30 07:23:46;;;;;;;7.90;1.80;;;23.80;69.30;;;;;;4992103;28;20185;-69
2023/11/30 07:26:14;;;;;;;3.33;1.63;;;23.80;69.50;;;;;;4992348;28;20186;-68
2023/11/30 07:28:41;;;;;;;6.63;1.60;;;23.80;69.70;;;;;;4986513;28;20369;-71
2023/11/30 07:31:16;;;;;;;5.83;1.53;;;23.80;69.70;;;;;;4992091;28;20205;-72
2023/11/30 07:33:44;;;;;;;9.13;1.97;;;23.80;69.60;;;;;;4992790;28;20186;-71
2023/11/30 07:36:11;;;;;;;3.30;1.30;;;23.80;70.00;;;;;;4990722;28;20181;-71
2023/11/30 07:38:39;;;;;;;5.13;1.70;;;23.80;70.30;;;;;;4993175;28;20193;-71
2023/11/30 07:41:07;;;;;;;3.00;1.60;;;23.70;69.90;;;;;;4993542;28;20206;-71
2023/11/30 07:43:35;;;;;;;3.67;1.60;;;23.70;69.80;;;;;;4994203;28;20256;-71
2023/11/30 07:46:02;;;;;;;7.80;1.67;;;23.80;69.80;;;;;;4994254;28;20217;-70
2023/11/30 07:48:30;;;;;;;7.10;1.90;;;23.80;69.40;;;;;;4991192;28;20240;-71
2023/11/30 07:50:57;;;;;;;4.00;1.50;;;23.80;69.60;;;;;;4993919;28;20637;-71
2023/11/30 07:53:25;;;;;;;2.73;1.73;;;23.80;69.10;;;;;;4993691;28;20546;-71
2023/11/30 07:55:56;;;;;;;5.00;1.83;;;23.80;69.30;;;;;;4993440;28;20182;-72
2023/11/30 07:58:24;;;;;;;4.70;1.90;;;23.80;69.30;;;;;;4975978;28;20197;-72
2023/11/30 08:00:51;;;;;;;4.07;1.73;;;23.80;69.80;;;;;;4991895;28;20593;-71
2023/11/30 08:03:19;;;;;;;7.30;2.30;;;23.90;69.60;;;;;;4990164;28;20186;-72
2023/11/30 08:05:46;;;;;;;8.10;2.03;;;23.90;69.60;;;;;;4991729;28;20192;-71
2023/11/30 08:08:14;;;;;;;7.23;2.20;;;23.80;70.00;;;;;;4994754;28;20195;-71
2023/11/30 08:10:41;;;;;;;4.80;2.07;;;23.80;70.30;;;;;;4994120;28;20232;-71
2023/11/30 08:13:10;;;;;;;5.57;2.50;;;23.80;70.40;;;;;;4994800;28;20186;-68
2023/11/30 08:15:38;;;;;;;8.53;2.40;;;23.70;70.50;;;;;;4988132;28;20241;-69
2023/11/30 08:18:07;;;;;;;9.30;1.90;;;23.60;70.70;;;;;;4987078;28;20177;-69
2023/11/30 08:20:35;;;;;;;4.73;1.73;;;23.40;70.40;;;;;;4986691;28;20194;-68
2023/11/30 08:23:02;;;;;;;3.63;1.60;;;23.30;70.30;;;;;;4994441;28;20587;-69
2023/11/30 08:25:30;;;;;;;3.77;1.70;;;23.20;70.70;;;;;;4993731;28;20182;-69
2023/11/30 08:27:58;;;;;;;3.37;1.20;;;23.20;70.50;;;;;;4993146;28;20241;-67
2023/11/30 08:30:26;;;;;;;3.23;1.40;;;23.10;70.50;;;;;;4993397;28;20198;-68
2023/11/30 08:32:53;;;;;;;4.10;1.40;;;23.10;70.60;;;;;;4991752;28;20218;-71
2023/11/30 08:35:21;;;;;;;6.03;1.53;;;23.10;70.70;;;;;;4992706;28;20221;-69
2023/11/30 08:37:48;;;;;;;5.63;1.70;;;23.00;70.70;;;;;;4992564;28;20193;-68
2023/11/30 08:40:16;;;;;;;3.50;1.50;;;23.10;70.80;;;;;;4984567;28;20182;-68
2023/11/30 08:42:43;;;;;;;8.93;1.87;;;23.00;71.10;;;;;;4992594;28;20213;-71
2023/11/30 08:45:10;;;;;;;5.33;1.80;;;23.10;71.00;;;;;;4989423;28;20174;-70
2023/11/30 08:47:38;;;;;;;4.60;1.93;;;23.10;71.30;;;;;;4993083;28;20182;-72
2023/11/30 08:50:06;;;;;;;5.50;1.60;;;23.10;71.50;;;;;;4992474;28;20287;-69
2023/11/30 08:52:35;;;;;;;8.63;2.23;;;23.10;71.40;;;;;;4990997;28;20182;-70
2023/11/30 08:55:02;;;;;;;3.57;2.10;;;23.10;71.60;;;;;;4986551;28;20174;-68
2023/11/30 08:57:30;;;;;;;7.57;1.90;;;23.10;71.60;;;;;;4991946;28;20236;-67
2023/11/30 08:59:57;;;;;;;6.73;2.17;;;23.10;71.60;;;;;;4992087;28;20190;-68
2023/11/30 09:02:25;;;;;;;7.50;2.07;;;23.10;71.40;;;;;;4993613;28;20257;-66
2023/11/30 09:04:52;;;;;;;5.53;2.13;;;23.00;71.60;;;;;;4991814;28;20186;-70
2023/11/30 09:07:20;;;;;;;3.83;2.03;;;23.00;71.90;;;;;;4990903;28;20586;-68
2023/11/30 09:09:48;;;;;;;9.43;2.63;;;23.00;71.80;;;;;;4992954;28;20202;-69
2023/11/30 09:12:15;;;;;;;5.43;2.13;;;23.00;71.60;;;;;;4991363;28;20261;-67
2023/11/30 09:14:42;;;;;;;10.23;2.20;;;22.90;72.10;;;;;;4992264;28;20198;-70
2023/11/30 09:17:10;;;;;;;8.00;2.57;;;22.80;71.90;;;;;;4990058;28;20187;-68
2023/11/30 09:19:37;;;;;;;11.07;2.43;;;22.80;72.10;;;;;;4974064;28;20323;-67
2023/11/30 09:22:04;;;;;;;9.77;2.47;;;22.80;72.30;;;;;;4989944;28;20190;-67
2023/11/30 09:24:32;;;;;;;9.03;2.60;;;22.60;73.00;;;;;;4994220;28;20190;-71
2023/11/30 09:26:59;;;;;;;9.80;2.33;;;22.50;73.80;;;;;;4992500;28;20217;-70
2023/11/30 09:29:26;;;;;;;8.87;1.47;;;22.30;75.10;;;;;;4989647;28;20225;-69
2023/11/30 09:31:53;;;;;;;5.47;1.70;;;22.20;77.20;;;;;;4985777;28;20285;-68
2023/11/30 09:34:21;;;;;;;4.30;1.63;;;21.90;79.20;;;;;;4991767;28;20182;-70
2023/11/30 09:36:49;;;;;;;4.03;1.60;;;21.70;81.00;;;;;;4996005;28;20174;-68
2023/11/30 09:39:19;;;;;;;7.23;2.00;;;21.50;81.30;;;;;;4987801;28;20223;-71
2023/11/30 09:41:46;;;;;;;3.07;1.53;;;21.50;82.40;;;;;;4991150;28;20227;-71
2023/11/30 09:44:14;;;;;;;5.73;1.60;;;21.40;82.70;;;;;;4992459;28;20264;-68
2023/11/30 09:46:42;;;;;;;3.43;1.60;;;21.30;82.60;;;;;;4984699;28;20268;-68
2023/11/30 09:49:10;;;;;;;4.53;1.40;;;21.20;83.40;;;;;;4992408;28;20214;-70
2023/11/30 09:51:43;;;;;;;3.93;1.50;;;21.10;83.00;;;;;;4993526;28;20178;-67
2023/11/30 09:54:11;;;;;;;6.63;1.40;;;21.10;83.10;;;;;;4988009;28;20187;-69
2023/11/30 09:56:40;;;;;;;5.83;1.53;;;21.10;83.70;;;;;;4985763;28;20190;-67
2023/11/30 09:59:07;;;;;;;5.33;1.90;;;21.10;83.40;;;;;;4988159;28;20178;-71
2023/11/30 10:01:35;;;;;;;5.07;1.67;;;21.10;83.50;;;;;;4991156;28;20185;-71
2023/11/30 10:04:13;;;;;;;7.00;1.60;;;21.20;83.80;;;;;;4991520;28;20186;-71
2023/11/30 10:06:41;;;;;;;4.57;1.47;;;21.20;83.80;;;;;;4990873;28;20196;-70
2023/11/30 10:09:12;;;;;;;8.93;1.27;;;21.20;83.80;;;;;;4987458;28;20261;-67
2023/11/30 10:11:41;;;;;;;6.80;1.60;;;21.10;83.70;;;;;;4989995;28;20546;-71
2023/11/30 10:14:09;;;;;;;5.07;1.47;;;21.10;83.90;;;;;;4981185;28;20717;-70
2023/11/30 10:16:36;;;;;;;5.50;1.10;;;20.90;83.20;;;;;;4988260;28;20205;-69
2023/11/30 10:19:04;;;;;;;7.00;1.70;;;20.90;83.10;;;;;;4986943;28;20276;-69
2023/11/30 10:21:32;;;;;;;7.00;1.30;;;21.00;83.10;;;;;;4992811;28;20273;-71
2023/11/30 10:23:59;;;;;;;4.93;1.40;;;20.90;82.60;;;;;;4993218;28;20240;-70
2023/11/30 10:26:29;;;;;;;5.07;1.47;;;20.90;82.30;;;;;;4980661;28;20197;-71
2023/11/30 10:28:57;;;;;;;8.63;1.73;;;20.90;82.10;;;;;;4992914;28;20324;-71
2023/11/30 10:31:25;;;;;;;11.07;1.63;;;20.90;81.90;;;;;;4993088;28;20213;-70
2023/11/30 10:34:03;;;;;;;7.37;1.73;;;20.90;81.90;;;;;;4985855;28;20190;-70
2023/11/30 10:36:32;;;;;;;9.23;1.67;;;20.80;81.60;;;;;;4990017;28;20189;-71
2023/11/30 10:39:22;;;;;;;5.07;1.47;;;20.80;81.60;;;;;;4992294;28;20259;-69
2023/11/30 10:41:54;;;;;;;3.97;1.37;;;20.80;82.00;;;;;;4983956;28;20193;-69
2023/11/30 10:44:31;;;;;;;8.63;1.40;;;20.80;81.80;;;;;;4988874;28;20278;-71
2023/11/30 10:47:02;;;;;;;6.40;1.40;;;20.80;81.90;;;;;;4997427;28;20190;-71
2023/11/30 10:49:30;;;;;;;6.80;1.43;;;20.80;82.30;;;;;;4996877;28;20217;-71
2023/11/30 10:52:02;;;;;;;5.23;1.70;;;20.80;82.20;;;;;;4989163;28;20178;-71
2023/11/30 10:54:49;;;;;;;9.93;1.97;;;20.80;82.10;;;;;;4994792;28;20182;-71
2023/11/30 10:57:19;;;;;;;7.97;2.13;;;20.80;82.30;;;;;;4984917;28;20182;-71
2023/11/30 10:59:48;;;;;;;10.33;2.63;;;20.80;82.20;;;;;;4997937;28;20193;-71
2023/11/30 11:02:15;;;;;;;7.37;2.00;;;20.80;82.30;;;;;;4992013;28;20198;-71
2023/11/30 11:04:43;;;;;;;9.37;1.97;;;20.80;82.30;;;;;;4989438;28;20186;-70
2023/11/30 11:07:13;;;;;;;7.03;1.67;;;20.80;82.60;;;;;;4982964;28;20532;-71
2023/11/30 11:09:42;;;;;;;7.80;1.53;;;20.80;82.30;;;;;;4988154;28;20234;-72
2023/11/30 11:12:24;;;;;;;9.53;1.90;;;20.80;82.30;;;;;;4994417;28;20743;-71
2023/11/30 11:15:08;;;;;;;10.70;1.93;;;20.80;82.50;;;;;;4994265;28;20186;-71
2023/11/30 11:18:07;;;;;;;5.87;1.90;;;20.80;82.60;;;;;;4996983;28;20561;-71
2023/11/30 11:20:36;;;;;;;7.10;1.60;;;20.80;82.80;;;;;;4995678;28;20179;-71
2023/11/30 11:23:04;;;;;;;7.87;1.40;;;20.80;83.00;;;;;;4983325;28;20270;-71
2023/11/30 11:25:51;;;;;;;4.93;1.20;;;20.70;83.10;;;;;;4996063;28;20201;-71
2023/11/30 11:28:19;;;;;;;5.90;1.37;;;20.70;83.30;;;;;;4988345;28;20223;-71
2023/11/30 11:30:48;;;;;;;7.57;1.30;;;20.70;83.30;;;;;;4987305;28;20213;-70
2023/11/30 11:33:18;;;;;;;5.30;1.33;;;20.60;83.30;;;;;;4991965;28;20542;-71
2023/11/30 11:35:46;;;;;;;7.20;1.57;;;20.60;83.30;;;;;;4991588;28;20178;-71
2023/11/30 11:38:13;;;;;;;9.57;2.60;;;20.60;83.70;;;;;;4982842;28;20744;-67
2023/11/30 11:40:41;;;;;;;7.40;1.57;;;20.60;83.40;;;;;;4991351;28;20671;-70
2023/11/30 11:43:09;;;;;;;5.17;1.10;;;20.50;83.60;;;;;;4993471;28;20182;-70
2023/11/30 11:45:37;;;;;;;7.03;1.37;;;20.50;83.70;;;;;;4993850;28;20181;-67
2023/11/30 11:48:04;;;;;;;7.80;1.57;;;20.50;83.90;;;;;;4981632;28;20178;-69
2023/11/30 11:50:32;;;;;;;8.23;2.27;;;20.50;84.00;;;;;;4993726;28;20213;-68
2023/11/30 11:53:06;;;;;;;7.97;1.73;;;20.50;83.90;;;;;;4980801;28;20227;-67
2023/11/30 11:55:33;;;;;;;7.67;1.90;;;20.40;84.10;;;;;;4995504;28;20189;-71
2023/11/30 11:58:01;;;;;;;12.13;2.07;;;20.30;84.20;;;;;;4984985;28;20543;-69
2023/11/30 12:00:28;;;;;;;7.37;1.70;;;20.30;84.40;;;;;;4993114;28;20193;-71
2023/11/30 12:03:09;;;;;;;9.27;1.87;;;20.30;84.50;;;;;;4993738;28;20205;-69
2023/11/30 12:05:47;;;;;;;8.63;1.93;;;20.30;84.60;;;;;;4995409;28;20273;-67
2023/11/30 12:08:15;;;;;;;5.77;1.57;;;20.20;84.50;;;;;;4994306;28;20185;-71
2023/11/30 12:10:44;;;;;;;7.10;1.70;;;20.20;84.60;;;;;;4982118;28;20773;-70
2023/11/30 12:13:16;;;;;;;6.07;1.60;;;20.20;84.70;;;;;;4985887;28;20178;-70
2023/11/30 12:15:44;;;;;;;8.27;1.70;;;20.20;84.50;;;;;;4991421;28;20186;-70
2023/11/30 12:18:11;;;;;;;6.77;1.80;;;20.10;84.50;;;;;;4994438;28;20332;-71
2023/11/30 12:20:39;;;;;;;9.57;2.00;;;20.10;84.50;;;;;;4990429;28;20585;-71
2023/11/30 12:23:06;;;;;;;14.80;2.27;;;20.10;84.50;;;;;;4989262;28;20190;-71
2023/11/30 12:25:34;;;;;;;4.67;1.60;;;20.10;84.60;;;;;;4994606;28;20182;-70
2023/11/30 12:28:01;;;;;;;8.13;1.80;;;20.00;84.70;;;;;;4988958;28;20236;-69
2023/11/30 12:30:28;;;;;;;6.83;1.87;;;20.10;85.10;;;;;;4991841;28;20734;-69
2023/11/30 12:32:56;;;;;;;6.50;1.90;;;20.00;85.20;;;;;;4994930;28;20178;-68
2023/11/30 12:35:24;;;;;;;12.50;2.13;;;20.00;85.10;;;;;;4986553;28;20189;-70
2023/11/30 12:37:51;;;;;;;5.40;1.90;;;20.00;85.20;;;;;;4992253;28;20174;-71
2023/11/30 12:40:19;;;;;;;8.67;1.83;;;19.90;85.30;;;;;;4993879;28;20174;-71
2023/11/30 12:42:47;;;;;;;7.73;1.77;;;19.80;85.30;;;;;;4996337;28;20237;-71
2023/11/30 12:45:14;;;;;;;10.10;2.47;;;19.80;85.60;;;;;;4992288;28;20223;-70
2023/11/30 12:47:42;;;;;;;9.33;2.13;;;19.80;86.10;;;;;;4993674;28;20190;-70
2023/11/30 12:50:10;;;;;;;6.80;2.00;;;19.80;86.00;;;;;;4994517;28;20313;-71